sensor_id;sensor_type;location;lat;lon;timestamp;temperature;humidity
45765;DHT22;31474;45.332;10.230;2022-12-01T00:00:44;6.10;99.90
45765;DHT22;31474;45.332;10.230;2022-12-01T00:03:10;6.10;99.90
45765;DHT22;31474;45.332;10.230;2022-12-01T00:05:35;6.10;99.90
45765;DHT22;31474;45.332;10.230;2022-12-01T00:08:01;6.00;99.90
45765;DHT22;31474;45.332;10.230;2022-12-01T00:10:29;6.00;99.90
45765;DHT22;31474;45.332;10.230;2022-12-01T00:13:01;6.00;99.90
45765;DHT22;31474;45.332;10.230;2022-12-01T00:15:32;5.90;99.90
45765;DHT22;31474;45.332;10.230;2022-12-01T00:18:00;6.00;99.90
45765;DHT22;31474;45.332;10.230;2022-12-01T00:20:26;5.90;99.90
45765;DHT22;31474;45.332;10.230;2022-12-01T00:22:52;5.90;99.90
45765;DHT22;31474;45.332;10.230;2022-12-01T00:25:19;5.90;99.90
45765;DHT22;31474;45.332;10.230;2022-12-01T00:27:49;5.90;99.90
45765;DHT22;31474;45.332;10.230;2022-12-01T00:30:16;5.90;99.90
45765;DHT22;31474;45.332;10.230;2022-12-01T00:32:42;5.80;99.90
45765;DHT22;31474;45.332;10.230;2022-12-01T00:35:08;5.80;99.90
45765;DHT22;31474;45.332;10.230;2022-12-01T00:37:34;5.80;99.90
45765;DHT22;31474;45.332;10.230;2022-12-01T00:40:00;5.90;99.90
45765;DHT22;31474;45.332;10.230;2022-12-01T00:42:27;5.80;99.90
45765;DHT22;31474;45.332;10.230;2022-12-01T00:44:53;5.80;99.90
45765;DHT22;31474;45.332;10.230;2022-12-01T00:47:18;5.80;99.90
45765;DHT22;31474;45.332;10.230;2022-12-01T00:49:44;5.70;99.90
45765;DHT22;31474;45.332;10.230;2022-12-01T00:52:11;5.70;99.90
45765;DHT22;31474;45.332;10.230;2022-12-01T00:54:37;5.80;99.90
45765;DHT22;31474;45.332;10.230;2022-12-01T00:57:03;5.80;99.90
45765;DHT22;31474;45.332;10.230;2022-12-01T00:59:29;5.80;99.90
45765;DHT22;31474;45.332;10.230;2022-12-01T01:01:55;5.80;99.90
45765;DHT22;31474;45.332;10.230;2022-12-01T01:04:20;5.70;99.90
45765;DHT22;31474;45.332;10.230;2022-12-01T01:06:46;5.70;99.90
45765;DHT22;31474;45.332;10.230;2022-12-01T01:09:13;5.70;99.90
45765;DHT22;31474;45.332;10.230;2022-12-01T01:11:39;5.70;99.90
45765;DHT22;31474;45.332;10.230;2022-12-01T01:14:05;5.80;99.90
45765;DHT22;31474;45.332;10.230;2022-12-01T01:16:32;5.70;99.90
45765;DHT22;31474;45.332;10.230;2022-12-01T01:18:58;5.70;99.90
45765;DHT22;31474;45.332;10.230;2022-12-01T01:21:24;5.80;99.90
45765;DHT22;31474;45.332;10.230;2022-12-01T01:23:51;5.80;99.90
45765;DHT22;31474;45.332;10.230;2022-12-01T01:26:27;5.80;99.90
45765;DHT22;31474;45.332;10.230;2022-12-01T01:28:56;5.70;99.90
45765;DHT22;31474;45.332;10.230;2022-12-01T01:31:24;5.70;99.90
45765;DHT22;31474;45.332;10.230;2022-12-01T01:33:50;5.80;99.90
45765;DHT22;31474;45.332;10.230;2022-12-01T01:36:18;5.70;99.90
45765;DHT22;31474;45.332;10.230;2022-12-01T01:38:44;5.70;99.90
45765;DHT22;31474;45.332;10.230;2022-12-01T01:41:10;5.70;99.90
45765;DHT22;31474;45.332;10.230;2022-12-01T01:43:57;5.80;99.90
45765;DHT22;31474;45.332;10.230;2022-12-01T01:46:26;5.70;99.90
45765;DHT22;31474;45.332;10.230;2022-12-01T01:49:01;5.70;99.90
45765;DHT22;31474;45.332;10.230;2022-12-01T01:51:46;5.70;99.90
45765;DHT22;31474;45.332;10.230;2022-12-01T01:54:25;5.70;99.90
45765;DHT22;31474;45.332;10.230;2022-12-01T01:56:53;5.60;99.90
45765;DHT22;31474;45.332;10.230;2022-12-01T01:59:22;5.60;99.90
45765;DHT22;31474;45.332;10.230;2022-12-01T02:02:01;5.60;99.90
45765;DHT22;31474;45.332;10.230;2022-12-01T02:04:28;5.50;99.90
45765;DHT22;31474;45.332;10.230;2022-12-01T02:06:54;5.50;99.90
45765;DHT22;31474;45.332;10.230;2022-12-01T02:09:19;5.50;99.90
45765;DHT22;31474;45.332;10.230;2022-12-01T02:11:51;5.50;99.90
45765;DHT22;31474;45.332;10.230;2022-12-01T02:14:55;5.40;99.90
45765;DHT22;31474;45.332;10.230;2022-12-01T02:35:22;5.30;99.90
45765;DHT22;31474;45.332;10.230;2022-12-01T02:40:35;5.30;99.90
45765;DHT22;31474;45.332;10.230;2022-12-01T02:43:09;5.20;99.90
45765;DHT22;31474;45.332;10.230;2022-12-01T02:45:42;5.20;99.90
45765;DHT22;31474;45.332;10.230;2022-12-01T02:48:34;5.20;99.90
45765;DHT22;31474;45.332;10.230;2022-12-01T02:51:06;5.20;99.90
45765;DHT22;31474;45.332;10.230;2022-12-01T02:53:34;5.20;99.90
45765;DHT22;31474;45.332;10.230;2022-12-01T02:56:09;5.20;99.90
45765;DHT22;31474;45.332;10.230;2022-12-01T02:58:35;5.20;99.90
45765;DHT22;31474;45.332;10.230;2022-12-01T03:09:51;5.10;99.90
45765;DHT22;31474;45.332;10.230;2022-12-01T03:12:32;5.10;99.90
45765;DHT22;31474;45.332;10.230;2022-12-01T03:15:25;5.10;99.90
45765;DHT22;31474;45.332;10.230;2022-12-01T03:21:05;5.10;99.90
45765;DHT22;31474;45.332;10.230;2022-12-01T03:23:26;5.00;99.90
45765;DHT22;31474;45.332;10.230;2022-12-01T03:25:55;5.00;99.90
45765;DHT22;31474;45.332;10.230;2022-12-01T03:28:28;4.90;99.90
45765;DHT22;31474;45.332;10.230;2022-12-01T03:30:57;4.90;99.90
45765;DHT22;31474;45.332;10.230;2022-12-01T03:33:29;5.00;99.90
45765;DHT22;31474;45.332;10.230;2022-12-01T03:38:28;4.90;99.90
45765;DHT22;31474;45.332;10.230;2022-12-01T03:41:07;4.80;99.90
45765;DHT22;31474;45.332;10.230;2022-12-01T03:43:38;4.80;99.90
45765;DHT22;31474;45.332;10.230;2022-12-01T03:46:21;4.80;99.90
45765;DHT22;31474;45.332;10.230;2022-12-01T03:48:48;4.70;99.90
45765;DHT22;31474;45.332;10.230;2022-12-01T03:57:03;4.60;99.90
45765;DHT22;31474;45.332;10.230;2022-12-01T03:59:30;4.50;99.90
45765;DHT22;31474;45.332;10.230;2022-12-01T04:01:56;4.50;99.90
45765;DHT22;31474;45.332;10.230;2022-12-01T04:04:22;4.40;99.90
45765;DHT22;31474;45.332;10.230;2022-12-01T04:06:48;4.40;99.90
45765;DHT22;31474;45.332;10.230;2022-12-01T04:09:17;4.30;99.90
45765;DHT22;31474;45.332;10.230;2022-12-01T04:11:43;4.30;99.90
45765;DHT22;31474;45.332;10.230;2022-12-01T04:14:27;4.20;99.90
45765;DHT22;31474;45.332;10.230;2022-12-01T04:16:54;4.20;99.90
45765;DHT22;31474;45.332;10.230;2022-12-01T04:19:20;4.20;99.90
45765;DHT22;31474;45.332;10.230;2022-12-01T04:21:45;4.20;99.90
45765;DHT22;31474;45.332;10.230;2022-12-01T04:24:12;4.10;99.90
45765;DHT22;31474;45.332;10.230;2022-12-01T04:26:38;4.10;99.90
45765;DHT22;31474;45.332;10.230;2022-12-01T04:29:05;4.10;99.90
45765;DHT22;31474;45.332;10.230;2022-12-01T04:31:31;4.10;99.90
45765;DHT22;31474;45.332;10.230;2022-12-01T04:33:58;4.00;99.90
45765;DHT22;31474;45.332;10.230;2022-12-01T04:36:25;4.00;99.90
45765;DHT22;31474;45.332;10.230;2022-12-01T04:38:51;4.00;99.90
45765;DHT22;31474;45.332;10.230;2022-12-01T04:41:17;3.90;99.90
45765;DHT22;31474;45.332;10.230;2022-12-01T04:43:43;3.90;99.90
45765;DHT22;31474;45.332;10.230;2022-12-01T04:46:09;3.90;99.90
45765;DHT22;31474;45.332;10.230;2022-12-01T04:48:36;3.80;99.90
45765;DHT22;31474;45.332;10.230;2022-12-01T04:51:04;3.80;99.90
45765;DHT22;31474;45.332;10.230;2022-12-01T04:53:30;3.80;99.90
45765;DHT22;31474;45.332;10.230;2022-12-01T04:55:59;3.70;99.90
45765;DHT22;31474;45.332;10.230;2022-12-01T04:58:25;3.70;99.90
45765;DHT22;31474;45.332;10.230;2022-12-01T05:00:51;3.70;99.90
45765;DHT22;31474;45.332;10.230;2022-12-01T05:03:17;3.70;99.90
45765;DHT22;31474;45.332;10.230;2022-12-01T05:05:43;3.70;99.90
45765;DHT22;31474;45.332;10.230;2022-12-01T05:08:09;3.70;99.90
45765;DHT22;31474;45.332;10.230;2022-12-01T05:10:35;3.70;99.90
45765;DHT22;31474;45.332;10.230;2022-12-01T05:13:03;3.60;99.90
45765;DHT22;31474;45.332;10.230;2022-12-01T05:15:28;3.70;99.90
45765;DHT22;31474;45.332;10.230;2022-12-01T05:17:54;3.60;99.90
45765;DHT22;31474;45.332;10.230;2022-12-01T05:20:23;3.50;99.90
45765;DHT22;31474;45.332;10.230;2022-12-01T05:23:07;3.50;99.90
45765;DHT22;31474;45.332;10.230;2022-12-01T05:25:33;3.50;99.90
45765;DHT22;31474;45.332;10.230;2022-12-01T05:27:59;3.50;99.90
45765;DHT22;31474;45.332;10.230;2022-12-01T05:30:25;3.50;99.90
45765;DHT22;31474;45.332;10.230;2022-12-01T05:32:51;3.50;99.90
45765;DHT22;31474;45.332;10.230;2022-12-01T05:35:17;3.50;99.90
45765;DHT22;31474;45.332;10.230;2022-12-01T05:37:42;3.50;99.90
45765;DHT22;31474;45.332;10.230;2022-12-01T05:40:08;3.50;99.90
45765;DHT22;31474;45.332;10.230;2022-12-01T05:42:34;3.40;99.90
45765;DHT22;31474;45.332;10.230;2022-12-01T05:45:00;3.40;99.90
45765;DHT22;31474;45.332;10.230;2022-12-01T05:47:25;3.40;99.90
45765;DHT22;31474;45.332;10.230;2022-12-01T05:49:51;3.40;99.90
45765;DHT22;31474;45.332;10.230;2022-12-01T05:52:16;3.40;99.90
45765;DHT22;31474;45.332;10.230;2022-12-01T05:54:42;3.40;99.90
45765;DHT22;31474;45.332;10.230;2022-12-01T05:57:08;3.30;99.90
45765;DHT22;31474;45.332;10.230;2022-12-01T05:59:33;3.30;99.90
45765;DHT22;31474;45.332;10.230;2022-12-01T06:01:59;3.40;99.90
45765;DHT22;31474;45.332;10.230;2022-12-01T06:04:25;3.30;99.90
45765;DHT22;31474;45.332;10.230;2022-12-01T06:06:50;3.30;99.90
45765;DHT22;31474;45.332;10.230;2022-12-01T06:09:16;3.30;99.90
45765;DHT22;31474;45.332;10.230;2022-12-01T06:11:42;3.30;99.90
45765;DHT22;31474;45.332;10.230;2022-12-01T06:14:07;3.30;99.90
45765;DHT22;31474;45.332;10.230;2022-12-01T06:16:33;3.40;99.90
45765;DHT22;31474;45.332;10.230;2022-12-01T06:18:59;3.40;99.90
45765;DHT22;31474;45.332;10.230;2022-12-01T06:21:24;3.20;99.90
45765;DHT22;31474;45.332;10.230;2022-12-01T06:23:50;3.30;99.90
45765;DHT22;31474;45.332;10.230;2022-12-01T06:26:15;3.30;99.90
45765;DHT22;31474;45.332;10.230;2022-12-01T06:28:41;3.30;99.90
45765;DHT22;31474;45.332;10.230;2022-12-01T06:31:07;3.20;99.90
45765;DHT22;31474;45.332;10.230;2022-12-01T06:33:32;3.30;99.90
45765;DHT22;31474;45.332;10.230;2022-12-01T06:35:59;3.20;99.90
45765;DHT22;31474;45.332;10.230;2022-12-01T06:38:25;3.20;99.90
45765;DHT22;31474;45.332;10.230;2022-12-01T06:40:54;3.20;99.90
45765;DHT22;31474;45.332;10.230;2022-12-01T06:43:20;3.20;99.90
45765;DHT22;31474;45.332;10.230;2022-12-01T06:45:46;3.10;99.90
45765;DHT22;31474;45.332;10.230;2022-12-01T06:48:11;3.10;99.90
45765;DHT22;31474;45.332;10.230;2022-12-01T06:50:37;3.00;99.90
45765;DHT22;31474;45.332;10.230;2022-12-01T06:53:02;3.10;99.90
45765;DHT22;31474;45.332;10.230;2022-12-01T06:55:28;3.10;99.90
45765;DHT22;31474;45.332;10.230;2022-12-01T06:57:54;3.10;99.90
45765;DHT22;31474;45.332;10.230;2022-12-01T07:00:20;3.10;99.90
45765;DHT22;31474;45.332;10.230;2022-12-01T07:02:46;3.10;99.90
45765;DHT22;31474;45.332;10.230;2022-12-01T07:05:12;3.20;99.90
45765;DHT22;31474;45.332;10.230;2022-12-01T07:07:38;3.20;99.90
45765;DHT22;31474;45.332;10.230;2022-12-01T07:10:04;3.30;99.90
45765;DHT22;31474;45.332;10.230;2022-12-01T07:12:31;3.30;99.90
45765;DHT22;31474;45.332;10.230;2022-12-01T07:14:56;3.20;99.90
45765;DHT22;31474;45.332;10.230;2022-12-01T07:17:26;3.30;99.90
45765;DHT22;31474;45.332;10.230;2022-12-01T07:19:51;3.30;99.90
45765;DHT22;31474;45.332;10.230;2022-12-01T07:22:17;3.30;99.90
45765;DHT22;31474;45.332;10.230;2022-12-01T07:24:43;3.30;99.90
45765;DHT22;31474;45.332;10.230;2022-12-01T07:27:08;3.30;99.90
45765;DHT22;31474;45.332;10.230;2022-12-01T07:29:34;3.40;99.90
45765;DHT22;31474;45.332;10.230;2022-12-01T07:32:00;3.40;99.90
45765;DHT22;31474;45.332;10.230;2022-12-01T07:34:26;3.40;99.90
45765;DHT22;31474;45.332;10.230;2022-12-01T07:36:51;3.30;99.90
45765;DHT22;31474;45.332;10.230;2022-12-01T07:39:17;3.40;99.90
45765;DHT22;31474;45.332;10.230;2022-12-01T07:41:43;3.40;99.90
45765;DHT22;31474;45.332;10.230;2022-12-01T07:44:09;3.40;99.90
45765;DHT22;31474;45.332;10.230;2022-12-01T07:46:35;3.50;99.90
45765;DHT22;31474;45.332;10.230;2022-12-01T07:49:04;3.50;99.90
45765;DHT22;31474;45.332;10.230;2022-12-01T07:51:30;3.50;99.90
45765;DHT22;31474;45.332;10.230;2022-12-01T07:54:01;3.60;99.90
45765;DHT22;31474;45.332;10.230;2022-12-01T07:56:27;3.60;99.90
45765;DHT22;31474;45.332;10.230;2022-12-01T07:58:53;3.60;99.90
45765;DHT22;31474;45.332;10.230;2022-12-01T08:01:21;3.70;99.90
45765;DHT22;31474;45.332;10.230;2022-12-01T08:03:48;3.70;99.90
45765;DHT22;31474;45.332;10.230;2022-12-01T08:06:15;3.80;99.90
45765;DHT22;31474;45.332;10.230;2022-12-01T08:08:42;3.80;99.90
45765;DHT22;31474;45.332;10.230;2022-12-01T08:11:13;3.80;99.90
45765;DHT22;31474;45.332;10.230;2022-12-01T08:13:39;3.90;99.90
45765;DHT22;31474;45.332;10.230;2022-12-01T08:16:07;3.80;99.90
45765;DHT22;31474;45.332;10.230;2022-12-01T08:18:33;3.90;99.90
45765;DHT22;31474;45.332;10.230;2022-12-01T08:21:00;3.90;99.90
45765;DHT22;31474;45.332;10.230;2022-12-01T08:23:25;4.00;99.90
45765;DHT22;31474;45.332;10.230;2022-12-01T08:25:51;4.00;99.90
45765;DHT22;31474;45.332;10.230;2022-12-01T08:28:18;4.10;99.90
45765;DHT22;31474;45.332;10.230;2022-12-01T08:30:44;4.10;99.90
45765;DHT22;31474;45.332;10.230;2022-12-01T08:33:09;4.10;99.90
45765;DHT22;31474;45.332;10.230;2022-12-01T08:35:35;4.10;99.90
45765;DHT22;31474;45.332;10.230;2022-12-01T08:38:02;4.10;99.90
45765;DHT22;31474;45.332;10.230;2022-12-01T08:40:27;4.10;99.90
45765;DHT22;31474;45.332;10.230;2022-12-01T08:42:53;4.10;99.90
45765;DHT22;31474;45.332;10.230;2022-12-01T08:45:19;4.20;99.90
45765;DHT22;31474;45.332;10.230;2022-12-01T08:47:45;4.20;99.90
45765;DHT22;31474;45.332;10.230;2022-12-01T08:50:12;4.20;99.90
45765;DHT22;31474;45.332;10.230;2022-12-01T08:52:37;4.20;99.90
45765;DHT22;31474;45.332;10.230;2022-12-01T08:55:04;4.30;99.90
45765;DHT22;31474;45.332;10.230;2022-12-01T08:57:30;4.30;99.90
45765;DHT22;31474;45.332;10.230;2022-12-01T08:59:56;4.40;99.90
45765;DHT22;31474;45.332;10.230;2022-12-01T09:02:21;4.40;99.90
45765;DHT22;31474;45.332;10.230;2022-12-01T09:04:47;4.50;99.90
45765;DHT22;31474;45.332;10.230;2022-12-01T09:07:15;4.50;99.90
45765;DHT22;31474;45.332;10.230;2022-12-01T09:09:42;4.60;99.90
45765;DHT22;31474;45.332;10.230;2022-12-01T09:12:08;4.60;99.90
45765;DHT22;31474;45.332;10.230;2022-12-01T09:14:38;4.80;99.90
45765;DHT22;31474;45.332;10.230;2022-12-01T09:17:05;4.80;99.90
45765;DHT22;31474;45.332;10.230;2022-12-01T09:19:31;4.80;99.90
45765;DHT22;31474;45.332;10.230;2022-12-01T09:21:57;4.80;99.90
45765;DHT22;31474;45.332;10.230;2022-12-01T09:24:23;4.80;99.90
45765;DHT22;31474;45.332;10.230;2022-12-01T09:26:49;4.90;99.90
45765;DHT22;31474;45.332;10.230;2022-12-01T09:29:15;5.00;99.90
45765;DHT22;31474;45.332;10.230;2022-12-01T09:31:42;5.00;99.90
45765;DHT22;31474;45.332;10.230;2022-12-01T09:34:14;5.10;99.90
45765;DHT22;31474;45.332;10.230;2022-12-01T09:36:40;5.10;99.90
45765;DHT22;31474;45.332;10.230;2022-12-01T09:39:07;5.20;99.90
45765;DHT22;31474;45.332;10.230;2022-12-01T09:46:57;5.40;99.90
45765;DHT22;31474;45.332;10.230;2022-12-01T09:49:49;5.50;99.90
45765;DHT22;31474;45.332;10.230;2022-12-01T09:52:17;5.50;99.90
45765;DHT22;31474;45.332;10.230;2022-12-01T09:54:45;5.50;99.90
45765;DHT22;31474;45.332;10.230;2022-12-01T09:57:33;5.50;99.90
45765;DHT22;31474;45.332;10.230;2022-12-01T10:00:03;5.60;99.90
45765;DHT22;31474;45.332;10.230;2022-12-01T10:02:32;5.70;99.90
45765;DHT22;31474;45.332;10.230;2022-12-01T10:05:03;5.80;99.90
45765;DHT22;31474;45.332;10.230;2022-12-01T10:10:00;6.00;99.90
45765;DHT22;31474;45.332;10.230;2022-12-01T10:12:31;6.00;99.90
45765;DHT22;31474;45.332;10.230;2022-12-01T10:21:01;6.10;99.90
45765;DHT22;31474;45.332;10.230;2022-12-01T10:26:13;6.20;99.90
45765;DHT22;31474;45.332;10.230;2022-12-01T10:31:49;6.30;99.90
45765;DHT22;31474;45.332;10.230;2022-12-01T10:34:29;6.30;99.90
45765;DHT22;31474;45.332;10.230;2022-12-01T10:36:57;6.30;99.90
45765;DHT22;31474;45.332;10.230;2022-12-01T10:39:42;6.40;99.90
45765;DHT22;31474;45.332;10.230;2022-12-01T10:42:18;6.40;99.90
45765;DHT22;31474;45.332;10.230;2022-12-01T10:44:45;6.50;99.90
45765;DHT22;31474;45.332;10.230;2022-12-01T10:47:18;6.60;99.90
45765;DHT22;31474;45.332;10.230;2022-12-01T10:49:45;6.70;99.90
45765;DHT22;31474;45.332;10.230;2022-12-01T10:52:35;6.70;99.90
45765;DHT22;31474;45.332;10.230;2022-12-01T10:55:03;6.80;99.90
45765;DHT22;31474;45.332;10.230;2022-12-01T10:57:30;6.80;99.90
45765;DHT22;31474;45.332;10.230;2022-12-01T11:00:06;6.90;99.90
45765;DHT22;31474;45.332;10.230;2022-12-01T11:02:34;6.90;99.90
45765;DHT22;31474;45.332;10.230;2022-12-01T11:05:23;7.00;99.90
45765;DHT22;31474;45.332;10.230;2022-12-01T11:07:50;7.10;99.90
45765;DHT22;31474;45.332;10.230;2022-12-01T11:12:51;7.20;99.90
45765;DHT22;31474;45.332;10.230;2022-12-01T11:15:21;7.30;99.90
45765;DHT22;31474;45.332;10.230;2022-12-01T11:17:47;7.30;99.90
45765;DHT22;31474;45.332;10.230;2022-12-01T11:23:19;7.40;99.90
45765;DHT22;31474;45.332;10.230;2022-12-01T11:26:14;7.40;99.90
45765;DHT22;31474;45.332;10.230;2022-12-01T11:28:50;7.50;99.90
45765;DHT22;31474;45.332;10.230;2022-12-01T11:31:17;7.60;99.90
45765;DHT22;31474;45.332;10.230;2022-12-01T11:33:50;7.60;99.90
45765;DHT22;31474;45.332;10.230;2022-12-01T11:36:43;7.70;99.90
45765;DHT22;31474;45.332;10.230;2022-12-01T11:39:21;7.70;99.90
45765;DHT22;31474;45.332;10.230;2022-12-01T11:41:48;7.80;99.90
45765;DHT22;31474;45.332;10.230;2022-12-01T11:44:19;7.90;99.90
45765;DHT22;31474;45.332;10.230;2022-12-01T11:46:45;8.00;99.90
45765;DHT22;31474;45.332;10.230;2022-12-01T11:49:16;8.00;99.90
45765;DHT22;31474;45.332;10.230;2022-12-01T11:51:43;8.00;99.90
45765;DHT22;31474;45.332;10.230;2022-12-01T11:54:20;8.00;99.90
45765;DHT22;31474;45.332;10.230;2022-12-01T11:56:48;8.10;99.90
45765;DHT22;31474;45.332;10.230;2022-12-01T11:59:25;8.20;99.90
45765;DHT22;31474;45.332;10.230;2022-12-01T12:10:02;8.30;99.90
45765;DHT22;31474;45.332;10.230;2022-12-01T12:13:06;8.30;99.90
45765;DHT22;31474;45.332;10.230;2022-12-01T12:16:04;8.40;99.90
45765;DHT22;31474;45.332;10.230;2022-12-01T12:24:30;8.30;99.90
45765;DHT22;31474;45.332;10.230;2022-12-01T12:40:56;8.40;99.90
45765;DHT22;31474;45.332;10.230;2022-12-01T12:43:47;8.30;99.90
45765;DHT22;31474;45.332;10.230;2022-12-01T12:46:32;8.40;99.90
45765;DHT22;31474;45.332;10.230;2022-12-01T12:54:19;8.40;99.90
45765;DHT22;31474;45.332;10.230;2022-12-01T12:56:50;8.40;99.90
45765;DHT22;31474;45.332;10.230;2022-12-01T13:02:16;8.50;99.90
45765;DHT22;31474;45.332;10.230;2022-12-01T13:04:57;8.50;99.90
45765;DHT22;31474;45.332;10.230;2022-12-01T13:07:30;8.60;99.90
45765;DHT22;31474;45.332;10.230;2022-12-01T13:10:22;8.60;99.90
45765;DHT22;31474;45.332;10.230;2022-12-01T13:15:38;8.60;99.90
45765;DHT22;31474;45.332;10.230;2022-12-01T13:19:00;8.60;99.90
45765;DHT22;31474;45.332;10.230;2022-12-01T13:21:02;8.60;99.90
45765;DHT22;31474;45.332;10.230;2022-12-01T13:23:29;8.70;99.90
45765;DHT22;31474;45.332;10.230;2022-12-01T13:25:57;8.70;99.90
45765;DHT22;31474;45.332;10.230;2022-12-01T13:28:27;8.60;99.90
45765;DHT22;31474;45.332;10.230;2022-12-01T13:33:23;8.50;99.90
45765;DHT22;31474;45.332;10.230;2022-12-01T13:35:52;8.40;99.90
45765;DHT22;31474;45.332;10.230;2022-12-01T13:38:32;8.40;99.90
45765;DHT22;31474;45.332;10.230;2022-12-01T13:44:05;8.50;99.90
45765;DHT22;31474;45.332;10.230;2022-12-01T13:49:31;8.50;99.90
45765;DHT22;31474;45.332;10.230;2022-12-01T14:02:26;8.40;99.90
45765;DHT22;31474;45.332;10.230;2022-12-01T14:04:52;8.40;99.90
45765;DHT22;31474;45.332;10.230;2022-12-01T14:07:31;8.40;99.90
45765;DHT22;31474;45.332;10.230;2022-12-01T14:10:22;8.40;99.90
45765;DHT22;31474;45.332;10.230;2022-12-01T14:12:49;8.40;99.90
45765;DHT22;31474;45.332;10.230;2022-12-01T14:20:44;8.40;99.90
45765;DHT22;31474;45.332;10.230;2022-12-01T14:26:14;8.40;99.90
45765;DHT22;31474;45.332;10.230;2022-12-01T14:34:14;8.30;99.90
45765;DHT22;31474;45.332;10.230;2022-12-01T14:41:59;8.30;99.90
45765;DHT22;31474;45.332;10.230;2022-12-01T14:44:34;8.30;99.90
45765;DHT22;31474;45.332;10.230;2022-12-01T14:49:42;8.20;99.90
45765;DHT22;31474;45.332;10.230;2022-12-01T14:52:34;8.20;99.90
45765;DHT22;31474;45.332;10.230;2022-12-01T14:55:04;8.20;99.90
45765;DHT22;31474;45.332;10.230;2022-12-01T14:57:33;8.20;99.90
45765;DHT22;31474;45.332;10.230;2022-12-01T15:00:13;8.10;99.90
45765;DHT22;31474;45.332;10.230;2022-12-01T15:02:47;8.20;99.90
45765;DHT22;31474;45.332;10.230;2022-12-01T15:05:18;8.10;99.90
45765;DHT22;31474;45.332;10.230;2022-12-01T15:07:48;8.10;99.90
45765;DHT22;31474;45.332;10.230;2022-12-01T15:10:18;8.10;99.90
45765;DHT22;31474;45.332;10.230;2022-12-01T15:12:45;8.10;99.90
45765;DHT22;31474;45.332;10.230;2022-12-01T15:15:20;8.00;99.90
45765;DHT22;31474;45.332;10.230;2022-12-01T15:17:46;8.00;99.90
45765;DHT22;31474;45.332;10.230;2022-12-01T15:20:33;8.00;99.90
45765;DHT22;31474;45.332;10.230;2022-12-01T15:23:15;7.90;99.90
45765;DHT22;31474;45.332;10.230;2022-12-01T15:25:44;7.90;99.90
45765;DHT22;31474;45.332;10.230;2022-12-01T15:28:15;7.80;99.90
45765;DHT22;31474;45.332;10.230;2022-12-01T15:30:44;7.80;99.90
45765;DHT22;31474;45.332;10.230;2022-12-01T15:33:23;7.80;99.90
45765;DHT22;31474;45.332;10.230;2022-12-01T15:35:49;7.80;99.90
45765;DHT22;31474;45.332;10.230;2022-12-01T15:38:18;7.80;99.90
45765;DHT22;31474;45.332;10.230;2022-12-01T15:40:47;7.80;99.90
45765;DHT22;31474;45.332;10.230;2022-12-01T15:43:23;7.80;99.90
45765;DHT22;31474;45.332;10.230;2022-12-01T15:46:00;7.70;99.90
45765;DHT22;31474;45.332;10.230;2022-12-01T15:48:34;7.70;99.90
45765;DHT22;31474;45.332;10.230;2022-12-01T15:51:15;7.70;99.90
45765;DHT22;31474;45.332;10.230;2022-12-01T15:53:48;7.70;99.90
45765;DHT22;31474;45.332;10.230;2022-12-01T15:56:15;7.60;99.90
45765;DHT22;31474;45.332;10.230;2022-12-01T15:58:44;7.60;99.90
45765;DHT22;31474;45.332;10.230;2022-12-01T16:01:16;7.60;99.90
45765;DHT22;31474;45.332;10.230;2022-12-01T16:03:55;7.60;99.90
45765;DHT22;31474;45.332;10.230;2022-12-01T16:06:26;7.60;99.90
45765;DHT22;31474;45.332;10.230;2022-12-01T16:14:55;7.60;99.90
45765;DHT22;31474;45.332;10.230;2022-12-01T16:17:22;7.50;99.90
45765;DHT22;31474;45.332;10.230;2022-12-01T16:22:46;7.50;99.90
45765;DHT22;31474;45.332;10.230;2022-12-01T16:25:35;7.50;99.90
45765;DHT22;31474;45.332;10.230;2022-12-01T16:28:03;7.50;99.90
45765;DHT22;31474;45.332;10.230;2022-12-01T16:30:39;7.50;99.90
45765;DHT22;31474;45.332;10.230;2022-12-01T16:33:14;7.50;99.90
45765;DHT22;31474;45.332;10.230;2022-12-01T16:35:40;7.40;99.90
45765;DHT22;31474;45.332;10.230;2022-12-01T16:38:15;7.40;99.90
45765;DHT22;31474;45.332;10.230;2022-12-01T16:40:45;7.40;99.90
45765;DHT22;31474;45.332;10.230;2022-12-01T16:43:16;7.40;99.90
45765;DHT22;31474;45.332;10.230;2022-12-01T16:45:43;7.40;99.90
45765;DHT22;31474;45.332;10.230;2022-12-01T16:48:10;7.40;99.90
45765;DHT22;31474;45.332;10.230;2022-12-01T16:50:36;7.40;99.90
45765;DHT22;31474;45.332;10.230;2022-12-01T16:53:02;7.40;99.90
45765;DHT22;31474;45.332;10.230;2022-12-01T16:58:08;7.40;99.90
45765;DHT22;31474;45.332;10.230;2022-12-01T17:00:34;7.40;99.90
45765;DHT22;31474;45.332;10.230;2022-12-01T17:03:00;7.40;99.90
45765;DHT22;31474;45.332;10.230;2022-12-01T17:05:26;7.40;99.90
45765;DHT22;31474;45.332;10.230;2022-12-01T17:07:52;7.40;99.90
45765;DHT22;31474;45.332;10.230;2022-12-01T17:10:18;7.40;99.90
45765;DHT22;31474;45.332;10.230;2022-12-01T17:12:44;7.40;99.90
45765;DHT22;31474;45.332;10.230;2022-12-01T17:15:10;7.40;99.90
45765;DHT22;31474;45.332;10.230;2022-12-01T17:17:36;7.40;99.90
45765;DHT22;31474;45.332;10.230;2022-12-01T17:20:03;7.30;99.90
45765;DHT22;31474;45.332;10.230;2022-12-01T17:22:28;7.40;99.90
45765;DHT22;31474;45.332;10.230;2022-12-01T17:24:54;7.40;99.90
45765;DHT22;31474;45.332;10.230;2022-12-01T17:27:21;7.30;99.90
45765;DHT22;31474;45.332;10.230;2022-12-01T17:29:47;7.30;99.90
45765;DHT22;31474;45.332;10.230;2022-12-01T17:32:13;7.30;99.90
45765;DHT22;31474;45.332;10.230;2022-12-01T17:34:39;7.30;99.90
45765;DHT22;31474;45.332;10.230;2022-12-01T17:37:05;7.30;99.90
45765;DHT22;31474;45.332;10.230;2022-12-01T17:39:31;7.30;99.90
45765;DHT22;31474;45.332;10.230;2022-12-01T17:41:56;7.30;99.90
45765;DHT22;31474;45.332;10.230;2022-12-01T17:44:22;7.30;99.90
45765;DHT22;31474;45.332;10.230;2022-12-01T17:46:47;7.30;99.90
45765;DHT22;31474;45.332;10.230;2022-12-01T17:49:13;7.30;99.90
45765;DHT22;31474;45.332;10.230;2022-12-01T17:51:39;7.30;99.90
45765;DHT22;31474;45.332;10.230;2022-12-01T17:54:06;7.30;99.90
45765;DHT22;31474;45.332;10.230;2022-12-01T17:56:32;7.20;99.90
45765;DHT22;31474;45.332;10.230;2022-12-01T17:58:58;7.20;99.90
45765;DHT22;31474;45.332;10.230;2022-12-01T18:01:23;7.20;99.90
45765;DHT22;31474;45.332;10.230;2022-12-01T18:03:49;7.20;99.90
45765;DHT22;31474;45.332;10.230;2022-12-01T18:06:15;7.30;99.90
45765;DHT22;31474;45.332;10.230;2022-12-01T18:08:42;7.20;99.90
45765;DHT22;31474;45.332;10.230;2022-12-01T18:11:10;7.30;99.90
45765;DHT22;31474;45.332;10.230;2022-12-01T18:13:38;7.20;99.90
45765;DHT22;31474;45.332;10.230;2022-12-01T18:16:12;7.20;99.90
45765;DHT22;31474;45.332;10.230;2022-12-01T18:18:39;7.10;99.90
45765;DHT22;31474;45.332;10.230;2022-12-01T18:21:09;7.10;99.90